FOLSOM LAKE (FOL)

Elevation: 466' · AMERICAN R basin · Operator: US Bureau of Reclamation

Provisional data, subject to change.
Query executed Wednesday at 5:04:29   clock

Select a sensor type for a plot of data.
Note: Reservoir Flows are daily averages.

Earlier

Date RES ELE    STORAGE    RES CHG    TOC STO    ABV TOC    OUTFLOW    INFLOW    EVAP    FNF    RIV REL    PPT INC    SPILL    DC PUMP    DIS PWR   
 FEET   AF   AF   AF   AF   CFS   CFS   CFS   CFS   CFS   INCHES   CFS   CFS   CFS  
04/07/2015 425.27 572217 947 717476 -145259 490 984 17 1755 0 0.77 0 72 418
04/08/2015 425.30 572475 258 719857 -147382 570 732 32 1142 0 0.00 0 70 500
04/09/2015 425.26 572131 -344 722238 -150107 838 702 37 1121 0 0.00 0 65 773
04/10/2015 425.29 572389 258 724619 -- 587 766 49 1196 0 0.00 0 73 514
04/11/2015 425.31 572561 172 727000 -- 809 945 49 1324 0 0.00 0 84 725
04/12/2015 425.32 572647 -- 729381 -- 887 973 43 1138 e 0 0.00 0 90 797
04/13/2015 425.35 572905 258 731762 -158857 767 949 52 1138 e 0 0.00 0 95 672
04/14/2015 425.33 572733 -172 734143 -161410 655 628 60 1137 e 0 0.00 0 97 558
04/15/2015 425.41 573422 689 736524 -163102 535 942 60 1020 e 0 0.00 0 99 436
04/16/2015 425.34 572819 -603 738905 -166086 839 581 46 1020 e 0 0.00 0 99 740
04/17/2015 425.30 572475 -344 741286 -- 682 561 52 1020 e 0 0.00 0 98 584
04/18/2015 425.28 572303 -172 743667 -- 855 808 40 961 e 0 0.00 0 103 752
04/19/2015 425.29 572389 86 746048 -173659 756 854 55 961 e 0 0.00 0 118 638
04/20/2015 425.28 572303 -86 748429 -176126 855 861 49 902 e 0 0.00 0 118 737
04/21/2015 425.22 571787 -516 751648 -179861 780 569 49 902 e 0 0.00 0 107 673
04/22/2015 425.14 571098 -689 757282 -186184 794 496 49 692 0 0.00 0 103 691
04/23/2015 425.06 570409 -689 762916 -192506 791 493 49 759 0 0.00 0 93 698
04/24/2015 425.06 570409 0 768549 -- 618 618 0 1284 0 0.20 0 89 529
04/25/2015 425.30 572475 2066 774183 -- 696 1787 49 3408 0 0.70 0 85 611
04/26/2015 425.57 574799 2324 779817 -205018 524 1745 49 2587 0 0.00 0 89 435
04/27/2015 425.72 576090 1291 785451 -209361 750 1401 0 2894 0 0.00 0 88 662
04/28/2015 425.87 577381 1291 791084 -- 530 1245 64 2882 0 0.00 0 87 443
04/29/2015 425.81 576865 -516 796718 -219853 1202 991 49 2273 0 0.00 0 95 1107
04/30/2015 425.68 575746 -1119 802352 -226606 1282 776 58 1821 0 0.00 0 101 1181
05/01/2015 425.59 574971 -775 807986 -- 1261 933 63 -- 0 0.00 0 105 1156
05/02/2015 425.54 574541 -430 813620 -- 1290 1136 63 -- 0 0.00 0 115 1175
05/03/2015 425.51 574283 -- 819254 -244970 1102 1093 121 -- 0 0.00 0 126 976
05/04/2015 425.48 574024 -259 824887 -250863 1046 944 29 -- 0 0.00 0 116 930
05/05/2015 -- -- -- -- -- -- -- -- -- -- -- -- -- --
05/06/2015 -- -- -- -- -- -- -- -- -- -- -- -- -- --

Later | Latest

Warning! This data is preliminary and subject to revision.

Show FOL Map | Plot FOL Data | 1 Month FOL Data | Real-Time FOL Data | FOL Info